sensor_id;sensor_type;location;lat;lon;timestamp;temperature;humidity
55771;DHT22;41687;-33.234;-60.334;2023-04-26T00:02:06;18.10;99.90
55771;DHT22;41687;-33.234;-60.334;2023-04-26T00:04:34;18.10;99.90
55771;DHT22;41687;-33.234;-60.334;2023-04-26T00:07:02;18.10;99.90
55771;DHT22;41687;-33.234;-60.334;2023-04-26T00:09:30;18.10;99.90
55771;DHT22;41687;-33.234;-60.334;2023-04-26T00:11:57;18.10;99.90
55771;DHT22;41687;-33.234;-60.334;2023-04-26T00:14:25;18.10;99.90
55771;DHT22;41687;-33.234;-60.334;2023-04-26T00:16:53;18.10;99.90
55771;DHT22;41687;-33.234;-60.334;2023-04-26T00:19:21;18.10;99.90
55771;DHT22;41687;-33.234;-60.334;2023-04-26T00:21:50;18.10;99.90
55771;DHT22;41687;-33.234;-60.334;2023-04-26T00:24:18;18.10;99.90
55771;DHT22;41687;-33.234;-60.334;2023-04-26T00:26:47;18.10;99.90
55771;DHT22;41687;-33.234;-60.334;2023-04-26T00:29:15;18.00;99.90
55771;DHT22;41687;-33.234;-60.334;2023-04-26T00:31:42;17.90;99.90
55771;DHT22;41687;-33.234;-60.334;2023-04-26T00:34:10;17.80;99.90
55771;DHT22;41687;-33.234;-60.334;2023-04-26T00:36:38;17.80;99.90
55771;DHT22;41687;-33.234;-60.334;2023-04-26T00:39:05;17.70;99.90
55771;DHT22;41687;-33.234;-60.334;2023-04-26T00:41:33;17.80;99.90
55771;DHT22;41687;-33.234;-60.334;2023-04-26T00:44:00;17.80;99.90
55771;DHT22;41687;-33.234;-60.334;2023-04-26T00:46:28;17.80;99.90
55771;DHT22;41687;-33.234;-60.334;2023-04-26T00:48:57;17.70;99.90
55771;DHT22;41687;-33.234;-60.334;2023-04-26T00:51:24;17.70;99.90
55771;DHT22;41687;-33.234;-60.334;2023-04-26T00:53:53;17.60;99.90
55771;DHT22;41687;-33.234;-60.334;2023-04-26T00:56:21;17.60;99.90
55771;DHT22;41687;-33.234;-60.334;2023-04-26T00:58:50;17.60;99.90
55771;DHT22;41687;-33.234;-60.334;2023-04-26T01:01:18;17.50;99.90
55771;DHT22;41687;-33.234;-60.334;2023-04-26T01:03:45;17.50;99.90
55771;DHT22;41687;-33.234;-60.334;2023-04-26T01:06:14;17.50;99.90
55771;DHT22;41687;-33.234;-60.334;2023-04-26T01:08:41;17.50;99.90
55771;DHT22;41687;-33.234;-60.334;2023-04-26T01:11:09;17.40;99.90
55771;DHT22;41687;-33.234;-60.334;2023-04-26T01:13:38;17.40;99.90
55771;DHT22;41687;-33.234;-60.334;2023-04-26T01:16:08;17.40;99.90
55771;DHT22;41687;-33.234;-60.334;2023-04-26T01:18:35;17.30;99.90
55771;DHT22;41687;-33.234;-60.334;2023-04-26T01:21:04;17.30;99.90
55771;DHT22;41687;-33.234;-60.334;2023-04-26T01:23:33;17.30;99.90
55771;DHT22;41687;-33.234;-60.334;2023-04-26T01:26:01;17.30;99.90
55771;DHT22;41687;-33.234;-60.334;2023-04-26T01:28:28;17.30;99.90
55771;DHT22;41687;-33.234;-60.334;2023-04-26T01:30:56;17.20;99.90
55771;DHT22;41687;-33.234;-60.334;2023-04-26T01:33:23;17.30;99.90
55771;DHT22;41687;-33.234;-60.334;2023-04-26T01:35:51;17.20;99.90
55771;DHT22;41687;-33.234;-60.334;2023-04-26T01:38:19;17.20;99.90
55771;DHT22;41687;-33.234;-60.334;2023-04-26T01:40:47;17.10;99.90
55771;DHT22;41687;-33.234;-60.334;2023-04-26T01:43:15;17.10;99.90
55771;DHT22;41687;-33.234;-60.334;2023-04-26T01:45:48;17.10;99.90
55771;DHT22;41687;-33.234;-60.334;2023-04-26T01:48:30;17.10;99.90
55771;DHT22;41687;-33.234;-60.334;2023-04-26T01:51:00;17.10;99.90
55771;DHT22;41687;-33.234;-60.334;2023-04-26T01:53:28;17.00;99.90
55771;DHT22;41687;-33.234;-60.334;2023-04-26T01:55:55;17.00;99.90
55771;DHT22;41687;-33.234;-60.334;2023-04-26T01:58:23;17.00;99.90
55771;DHT22;41687;-33.234;-60.334;2023-04-26T02:00:51;17.00;99.90
55771;DHT22;41687;-33.234;-60.334;2023-04-26T02:03:18;17.00;99.90
55771;DHT22;41687;-33.234;-60.334;2023-04-26T02:05:47;17.00;99.90
55771;DHT22;41687;-33.234;-60.334;2023-04-26T02:08:14;17.00;99.90
55771;DHT22;41687;-33.234;-60.334;2023-04-26T02:10:42;17.00;99.90
55771;DHT22;41687;-33.234;-60.334;2023-04-26T02:13:09;16.90;99.90
55771;DHT22;41687;-33.234;-60.334;2023-04-26T02:15:37;17.00;99.90
55771;DHT22;41687;-33.234;-60.334;2023-04-26T02:18:05;17.00;99.90
55771;DHT22;41687;-33.234;-60.334;2023-04-26T02:20:33;17.00;99.90
55771;DHT22;41687;-33.234;-60.334;2023-04-26T02:23:01;16.90;99.90
55771;DHT22;41687;-33.234;-60.334;2023-04-26T02:25:29;16.90;99.90
55771;DHT22;41687;-33.234;-60.334;2023-04-26T02:27:56;16.90;99.90
55771;DHT22;41687;-33.234;-60.334;2023-04-26T02:30:24;16.90;99.90
55771;DHT22;41687;-33.234;-60.334;2023-04-26T02:32:53;16.90;99.90
55771;DHT22;41687;-33.234;-60.334;2023-04-26T02:35:21;16.90;99.90
55771;DHT22;41687;-33.234;-60.334;2023-04-26T02:37:49;16.90;99.90
55771;DHT22;41687;-33.234;-60.334;2023-04-26T02:40:19;16.90;99.90
55771;DHT22;41687;-33.234;-60.334;2023-04-26T02:42:47;16.90;99.90
55771;DHT22;41687;-33.234;-60.334;2023-04-26T02:45:15;16.90;99.90
55771;DHT22;41687;-33.234;-60.334;2023-04-26T02:47:42;16.90;99.90
55771;DHT22;41687;-33.234;-60.334;2023-04-26T02:50:11;16.90;99.90
55771;DHT22;41687;-33.234;-60.334;2023-04-26T02:52:38;16.90;99.90
55771;DHT22;41687;-33.234;-60.334;2023-04-26T02:55:06;16.80;99.90
55771;DHT22;41687;-33.234;-60.334;2023-04-26T02:57:34;16.80;99.90
55771;DHT22;41687;-33.234;-60.334;2023-04-26T03:00:02;16.80;99.90
55771;DHT22;41687;-33.234;-60.334;2023-04-26T03:02:31;16.80;99.90
55771;DHT22;41687;-33.234;-60.334;2023-04-26T03:04:59;16.80;99.90
55771;DHT22;41687;-33.234;-60.334;2023-04-26T03:07:26;16.70;99.90
55771;DHT22;41687;-33.234;-60.334;2023-04-26T03:09:54;16.70;99.90
55771;DHT22;41687;-33.234;-60.334;2023-04-26T03:12:22;16.80;99.90
55771;DHT22;41687;-33.234;-60.334;2023-04-26T03:14:49;16.80;99.90
55771;DHT22;41687;-33.234;-60.334;2023-04-26T03:17:17;16.80;99.90
55771;DHT22;41687;-33.234;-60.334;2023-04-26T03:19:45;16.80;99.90
55771;DHT22;41687;-33.234;-60.334;2023-04-26T03:22:13;16.80;99.90
55771;DHT22;41687;-33.234;-60.334;2023-04-26T03:24:45;16.80;99.90
55771;DHT22;41687;-33.234;-60.334;2023-04-26T03:27:14;16.80;99.90
55771;DHT22;41687;-33.234;-60.334;2023-04-26T03:29:41;16.70;99.90
55771;DHT22;41687;-33.234;-60.334;2023-04-26T03:32:09;16.70;99.90
55771;DHT22;41687;-33.234;-60.334;2023-04-26T03:34:37;16.70;99.90
55771;DHT22;41687;-33.234;-60.334;2023-04-26T03:37:05;16.60;99.90
55771;DHT22;41687;-33.234;-60.334;2023-04-26T03:39:32;16.60;99.90
55771;DHT22;41687;-33.234;-60.334;2023-04-26T03:42:00;16.50;99.90
55771;DHT22;41687;-33.234;-60.334;2023-04-26T03:44:29;16.50;99.90
55771;DHT22;41687;-33.234;-60.334;2023-04-26T03:46:57;16.50;99.90
55771;DHT22;41687;-33.234;-60.334;2023-04-26T03:49:25;16.40;99.90
55771;DHT22;41687;-33.234;-60.334;2023-04-26T03:51:54;16.40;99.90
55771;DHT22;41687;-33.234;-60.334;2023-04-26T03:54:22;16.40;99.90
55771;DHT22;41687;-33.234;-60.334;2023-04-26T03:56:50;16.30;99.90
55771;DHT22;41687;-33.234;-60.334;2023-04-26T03:59:18;16.30;99.90
55771;DHT22;41687;-33.234;-60.334;2023-04-26T04:01:47;16.30;99.90
55771;DHT22;41687;-33.234;-60.334;2023-04-26T04:04:15;16.30;99.90
55771;DHT22;41687;-33.234;-60.334;2023-04-26T04:06:44;16.30;99.90
55771;DHT22;41687;-33.234;-60.334;2023-04-26T04:09:12;16.30;99.90
55771;DHT22;41687;-33.234;-60.334;2023-04-26T04:11:40;16.30;99.90
55771;DHT22;41687;-33.234;-60.334;2023-04-26T04:14:07;16.20;99.90
55771;DHT22;41687;-33.234;-60.334;2023-04-26T04:16:35;16.20;99.90
55771;DHT22;41687;-33.234;-60.334;2023-04-26T04:19:03;16.10;99.90
55771;DHT22;41687;-33.234;-60.334;2023-04-26T04:21:33;16.10;99.90
55771;DHT22;41687;-33.234;-60.334;2023-04-26T04:24:03;16.10;99.90
55771;DHT22;41687;-33.234;-60.334;2023-04-26T04:26:31;16.10;99.90
55771;DHT22;41687;-33.234;-60.334;2023-04-26T04:28:59;16.10;99.90
55771;DHT22;41687;-33.234;-60.334;2023-04-26T04:31:36;16.10;99.90
55771;DHT22;41687;-33.234;-60.334;2023-04-26T04:34:07;16.10;99.90
55771;DHT22;41687;-33.234;-60.334;2023-04-26T04:36:38;16.10;99.90
55771;DHT22;41687;-33.234;-60.334;2023-04-26T04:39:06;16.10;99.90
55771;DHT22;41687;-33.234;-60.334;2023-04-26T04:41:40;16.10;99.90
55771;DHT22;41687;-33.234;-60.334;2023-04-26T04:44:17;16.00;99.90
55771;DHT22;41687;-33.234;-60.334;2023-04-26T04:46:45;16.00;99.90
55771;DHT22;41687;-33.234;-60.334;2023-04-26T04:49:14;16.00;99.90
55771;DHT22;41687;-33.234;-60.334;2023-04-26T04:51:42;16.00;99.90
55771;DHT22;41687;-33.234;-60.334;2023-04-26T04:54:12;15.90;99.90
55771;DHT22;41687;-33.234;-60.334;2023-04-26T04:56:40;15.90;99.90
55771;DHT22;41687;-33.234;-60.334;2023-04-26T04:59:09;15.90;99.90
55771;DHT22;41687;-33.234;-60.334;2023-04-26T05:01:37;15.90;99.90
55771;DHT22;41687;-33.234;-60.334;2023-04-26T05:04:09;15.90;99.90
55771;DHT22;41687;-33.234;-60.334;2023-04-26T05:06:38;15.90;99.90
55771;DHT22;41687;-33.234;-60.334;2023-04-26T05:09:06;15.90;99.90
55771;DHT22;41687;-33.234;-60.334;2023-04-26T05:11:35;15.90;99.90
55771;DHT22;41687;-33.234;-60.334;2023-04-26T05:14:04;15.90;99.90
55771;DHT22;41687;-33.234;-60.334;2023-04-26T05:16:32;15.90;99.90
55771;DHT22;41687;-33.234;-60.334;2023-04-26T05:19:02;15.90;99.90
55771;DHT22;41687;-33.234;-60.334;2023-04-26T05:21:30;15.90;99.90
55771;DHT22;41687;-33.234;-60.334;2023-04-26T05:23:58;15.80;99.90
55771;DHT22;41687;-33.234;-60.334;2023-04-26T05:26:26;15.80;99.90
55771;DHT22;41687;-33.234;-60.334;2023-04-26T05:29:15;15.70;99.90
55771;DHT22;41687;-33.234;-60.334;2023-04-26T05:32:06;15.60;99.90
55771;DHT22;41687;-33.234;-60.334;2023-04-26T05:34:45;15.60;99.90
55771;DHT22;41687;-33.234;-60.334;2023-04-26T05:37:15;15.60;99.90
55771;DHT22;41687;-33.234;-60.334;2023-04-26T05:39:43;15.60;99.90
55771;DHT22;41687;-33.234;-60.334;2023-04-26T05:42:11;15.50;99.90
55771;DHT22;41687;-33.234;-60.334;2023-04-26T05:44:39;15.50;99.90
55771;DHT22;41687;-33.234;-60.334;2023-04-26T05:47:07;15.50;99.90
55771;DHT22;41687;-33.234;-60.334;2023-04-26T05:49:34;15.50;99.90
55771;DHT22;41687;-33.234;-60.334;2023-04-26T05:52:03;15.50;99.90
55771;DHT22;41687;-33.234;-60.334;2023-04-26T05:54:31;15.50;99.90
55771;DHT22;41687;-33.234;-60.334;2023-04-26T05:56:59;15.50;99.90
55771;DHT22;41687;-33.234;-60.334;2023-04-26T05:59:28;15.40;99.90
55771;DHT22;41687;-33.234;-60.334;2023-04-26T06:01:59;15.40;99.90
55771;DHT22;41687;-33.234;-60.334;2023-04-26T06:04:27;15.40;99.90
55771;DHT22;41687;-33.234;-60.334;2023-04-26T06:07:04;15.30;99.90
55771;DHT22;41687;-33.234;-60.334;2023-04-26T06:09:33;15.40;99.90
55771;DHT22;41687;-33.234;-60.334;2023-04-26T06:12:01;15.30;99.90
55771;DHT22;41687;-33.234;-60.334;2023-04-26T06:14:32;15.40;99.90
55771;DHT22;41687;-33.234;-60.334;2023-04-26T06:17:05;15.30;99.90
55771;DHT22;41687;-33.234;-60.334;2023-04-26T06:19:33;15.40;99.90
55771;DHT22;41687;-33.234;-60.334;2023-04-26T06:22:00;15.30;99.90
55771;DHT22;41687;-33.234;-60.334;2023-04-26T06:24:29;15.30;99.90
55771;DHT22;41687;-33.234;-60.334;2023-04-26T06:26:58;15.30;99.90
55771;DHT22;41687;-33.234;-60.334;2023-04-26T06:29:30;15.30;99.90
55771;DHT22;41687;-33.234;-60.334;2023-04-26T06:31:59;15.30;99.90
55771;DHT22;41687;-33.234;-60.334;2023-04-26T06:34:27;15.20;99.90
55771;DHT22;41687;-33.234;-60.334;2023-04-26T06:36:55;15.20;99.90
55771;DHT22;41687;-33.234;-60.334;2023-04-26T06:39:25;15.20;99.90
55771;DHT22;41687;-33.234;-60.334;2023-04-26T06:41:53;15.20;99.90
55771;DHT22;41687;-33.234;-60.334;2023-04-26T06:44:46;15.30;99.90
55771;DHT22;41687;-33.234;-60.334;2023-04-26T06:47:16;15.20;99.90
55771;DHT22;41687;-33.234;-60.334;2023-04-26T06:49:44;15.20;99.90
55771;DHT22;41687;-33.234;-60.334;2023-04-26T06:52:12;15.20;99.90
55771;DHT22;41687;-33.234;-60.334;2023-04-26T06:54:40;15.20;99.90
55771;DHT22;41687;-33.234;-60.334;2023-04-26T06:57:07;15.20;99.90
55771;DHT22;41687;-33.234;-60.334;2023-04-26T06:59:35;15.10;99.90
55771;DHT22;41687;-33.234;-60.334;2023-04-26T07:02:02;15.10;99.90
55771;DHT22;41687;-33.234;-60.334;2023-04-26T07:04:30;15.10;99.90
55771;DHT22;41687;-33.234;-60.334;2023-04-26T07:06:57;15.10;99.90
55771;DHT22;41687;-33.234;-60.334;2023-04-26T07:09:25;15.10;99.90
55771;DHT22;41687;-33.234;-60.334;2023-04-26T07:11:53;15.10;99.90
55771;DHT22;41687;-33.234;-60.334;2023-04-26T07:14:21;15.10;99.90
55771;DHT22;41687;-33.234;-60.334;2023-04-26T07:16:48;15.10;99.90
55771;DHT22;41687;-33.234;-60.334;2023-04-26T07:19:16;15.20;99.90
55771;DHT22;41687;-33.234;-60.334;2023-04-26T07:21:44;15.10;99.90
55771;DHT22;41687;-33.234;-60.334;2023-04-26T07:24:13;15.10;99.90
55771;DHT22;41687;-33.234;-60.334;2023-04-26T07:26:40;15.10;99.90
55771;DHT22;41687;-33.234;-60.334;2023-04-26T07:29:08;15.00;99.90
55771;DHT22;41687;-33.234;-60.334;2023-04-26T07:31:36;15.00;99.90
55771;DHT22;41687;-33.234;-60.334;2023-04-26T07:34:04;15.00;99.90
55771;DHT22;41687;-33.234;-60.334;2023-04-26T07:36:31;14.90;99.90
55771;DHT22;41687;-33.234;-60.334;2023-04-26T07:38:59;14.90;99.90
55771;DHT22;41687;-33.234;-60.334;2023-04-26T07:41:27;14.90;99.90
55771;DHT22;41687;-33.234;-60.334;2023-04-26T07:43:55;15.00;99.90
55771;DHT22;41687;-33.234;-60.334;2023-04-26T07:46:22;14.90;99.90
55771;DHT22;41687;-33.234;-60.334;2023-04-26T07:48:50;14.90;99.90
55771;DHT22;41687;-33.234;-60.334;2023-04-26T07:51:17;14.90;99.90
55771;DHT22;41687;-33.234;-60.334;2023-04-26T07:53:45;14.90;99.90
55771;DHT22;41687;-33.234;-60.334;2023-04-26T07:56:12;14.90;99.90
55771;DHT22;41687;-33.234;-60.334;2023-04-26T07:58:41;14.90;99.90
55771;DHT22;41687;-33.234;-60.334;2023-04-26T08:01:08;14.90;99.90
55771;DHT22;41687;-33.234;-60.334;2023-04-26T08:03:38;14.90;99.90
55771;DHT22;41687;-33.234;-60.334;2023-04-26T08:06:05;14.90;99.90
55771;DHT22;41687;-33.234;-60.334;2023-04-26T08:08:36;14.80;99.90
55771;DHT22;41687;-33.234;-60.334;2023-04-26T08:11:11;14.80;99.90
55771;DHT22;41687;-33.234;-60.334;2023-04-26T08:13:38;14.80;99.90
55771;DHT22;41687;-33.234;-60.334;2023-04-26T08:16:06;14.80;99.90
55771;DHT22;41687;-33.234;-60.334;2023-04-26T08:18:34;14.80;99.90
55771;DHT22;41687;-33.234;-60.334;2023-04-26T08:21:01;14.80;99.90
55771;DHT22;41687;-33.234;-60.334;2023-04-26T08:23:39;14.80;99.90
55771;DHT22;41687;-33.234;-60.334;2023-04-26T08:26:06;14.80;99.90
55771;DHT22;41687;-33.234;-60.334;2023-04-26T08:28:34;14.80;99.90
55771;DHT22;41687;-33.234;-60.334;2023-04-26T08:31:03;14.80;99.90
55771;DHT22;41687;-33.234;-60.334;2023-04-26T08:33:30;14.80;99.90
55771;DHT22;41687;-33.234;-60.334;2023-04-26T08:35:58;14.70;99.90
55771;DHT22;41687;-33.234;-60.334;2023-04-26T08:38:28;14.70;99.90
55771;DHT22;41687;-33.234;-60.334;2023-04-26T08:40:58;14.70;99.90
55771;DHT22;41687;-33.234;-60.334;2023-04-26T08:43:29;14.70;99.90
55771;DHT22;41687;-33.234;-60.334;2023-04-26T08:45:58;14.70;99.90
55771;DHT22;41687;-33.234;-60.334;2023-04-26T08:48:32;14.60;99.90
55771;DHT22;41687;-33.234;-60.334;2023-04-26T08:51:01;14.60;99.90
55771;DHT22;41687;-33.234;-60.334;2023-04-26T08:53:30;14.60;99.90
55771;DHT22;41687;-33.234;-60.334;2023-04-26T08:55:59;14.60;99.90
55771;DHT22;41687;-33.234;-60.334;2023-04-26T08:58:28;14.60;99.90
55771;DHT22;41687;-33.234;-60.334;2023-04-26T09:00:55;14.60;99.90
55771;DHT22;41687;-33.234;-60.334;2023-04-26T09:03:24;14.60;99.90
55771;DHT22;41687;-33.234;-60.334;2023-04-26T09:05:53;14.60;99.90
55771;DHT22;41687;-33.234;-60.334;2023-04-26T09:08:21;14.60;99.90
55771;DHT22;41687;-33.234;-60.334;2023-04-26T09:10:49;14.60;99.90
55771;DHT22;41687;-33.234;-60.334;2023-04-26T09:13:16;14.60;99.90
55771;DHT22;41687;-33.234;-60.334;2023-04-26T09:15:47;14.60;99.90
55771;DHT22;41687;-33.234;-60.334;2023-04-26T09:18:20;14.60;99.90
55771;DHT22;41687;-33.234;-60.334;2023-04-26T09:21:07;14.60;99.90
55771;DHT22;41687;-33.234;-60.334;2023-04-26T09:23:35;14.60;99.90
55771;DHT22;41687;-33.234;-60.334;2023-04-26T09:26:23;14.60;99.90
55771;DHT22;41687;-33.234;-60.334;2023-04-26T09:29:11;14.60;99.90
55771;DHT22;41687;-33.234;-60.334;2023-04-26T09:31:47;14.60;99.90
55771;DHT22;41687;-33.234;-60.334;2023-04-26T09:34:15;14.60;99.90
55771;DHT22;41687;-33.234;-60.334;2023-04-26T09:36:47;14.70;99.90
55771;DHT22;41687;-33.234;-60.334;2023-04-26T09:41:58;14.60;99.90
55771;DHT22;41687;-33.234;-60.334;2023-04-26T09:44:27;14.60;99.90
55771;DHT22;41687;-33.234;-60.334;2023-04-26T09:47:04;14.60;99.90
55771;DHT22;41687;-33.234;-60.334;2023-04-26T09:49:52;14.60;99.90
55771;DHT22;41687;-33.234;-60.334;2023-04-26T09:52:20;14.60;99.90
55771;DHT22;41687;-33.234;-60.334;2023-04-26T09:54:52;14.50;99.90
55771;DHT22;41687;-33.234;-60.334;2023-04-26T09:57:20;14.50;99.90
55771;DHT22;41687;-33.234;-60.334;2023-04-26T09:59:51;14.50;99.90
55771;DHT22;41687;-33.234;-60.334;2023-04-26T10:02:23;14.50;99.90
55771;DHT22;41687;-33.234;-60.334;2023-04-26T10:04:54;14.60;99.90
55771;DHT22;41687;-33.234;-60.334;2023-04-26T10:07:23;14.60;99.90
55771;DHT22;41687;-33.234;-60.334;2023-04-26T10:09:51;14.60;99.90
55771;DHT22;41687;-33.234;-60.334;2023-04-26T10:12:20;14.60;99.90
55771;DHT22;41687;-33.234;-60.334;2023-04-26T10:14:48;14.60;99.90
55771;DHT22;41687;-33.234;-60.334;2023-04-26T10:17:15;14.60;99.90
55771;DHT22;41687;-33.234;-60.334;2023-04-26T10:19:47;14.60;99.90
55771;DHT22;41687;-33.234;-60.334;2023-04-26T10:22:25;14.60;99.90
55771;DHT22;41687;-33.234;-60.334;2023-04-26T10:24:54;14.60;99.90
55771;DHT22;41687;-33.234;-60.334;2023-04-26T10:30:21;14.60;99.90
55771;DHT22;41687;-33.234;-60.334;2023-04-26T10:35:21;14.50;99.90
55771;DHT22;41687;-33.234;-60.334;2023-04-26T10:40:37;14.50;99.90
55771;DHT22;41687;-33.234;-60.334;2023-04-26T10:45:44;14.60;99.90
55771;DHT22;41687;-33.234;-60.334;2023-04-26T10:48:22;14.60;99.90
55771;DHT22;41687;-33.234;-60.334;2023-04-26T11:01:36;14.80;99.90
55771;DHT22;41687;-33.234;-60.334;2023-04-26T11:04:08;14.80;99.90
55771;DHT22;41687;-33.234;-60.334;2023-04-26T11:06:55;14.90;99.90
55771;DHT22;41687;-33.234;-60.334;2023-04-26T11:12:04;15.70;99.90
55771;DHT22;41687;-33.234;-60.334;2023-04-26T11:14:35;16.70;99.90
55771;DHT22;41687;-33.234;-60.334;2023-04-26T11:17:07;17.70;98.30
55771;DHT22;41687;-33.234;-60.334;2023-04-26T11:19:35;18.50;96.80
55771;DHT22;41687;-33.234;-60.334;2023-04-26T11:22:05;19.10;95.00
55771;DHT22;41687;-33.234;-60.334;2023-04-26T11:24:34;19.30;94.20
55771;DHT22;41687;-33.234;-60.334;2023-04-26T11:27:09;19.90;93.50
55771;DHT22;41687;-33.234;-60.334;2023-04-26T11:29:38;20.70;91.10
55771;DHT22;41687;-33.234;-60.334;2023-04-26T11:32:05;21.50;90.30
55771;DHT22;41687;-33.234;-60.334;2023-04-26T11:34:34;22.20;88.80
55771;DHT22;41687;-33.234;-60.334;2023-04-26T11:37:03;22.90;85.70
55771;DHT22;41687;-33.234;-60.334;2023-04-26T11:39:32;23.40;82.80
55771;DHT22;41687;-33.234;-60.334;2023-04-26T11:42:09;23.90;81.40
55771;DHT22;41687;-33.234;-60.334;2023-04-26T11:44:39;24.20;76.40
55771;DHT22;41687;-33.234;-60.334;2023-04-26T11:47:07;24.40;79.20
55771;DHT22;41687;-33.234;-60.334;2023-04-26T11:49:37;24.60;77.90
55771;DHT22;41687;-33.234;-60.334;2023-04-26T11:52:06;24.60;74.50
55771;DHT22;41687;-33.234;-60.334;2023-04-26T11:54:35;24.70;76.10
55771;DHT22;41687;-33.234;-60.334;2023-04-26T11:57:19;24.60;76.10
55771;DHT22;41687;-33.234;-60.334;2023-04-26T11:59:47;24.50;71.40
55771;DHT22;41687;-33.234;-60.334;2023-04-26T12:02:14;24.40;76.70
55771;DHT22;41687;-33.234;-60.334;2023-04-26T12:04:41;24.30;76.70
55771;DHT22;41687;-33.234;-60.334;2023-04-26T12:07:10;24.10;77.90
55771;DHT22;41687;-33.234;-60.334;2023-04-26T12:09:40;24.00;77.80
55771;DHT22;41687;-33.234;-60.334;2023-04-26T12:12:10;23.90;76.90
55771;DHT22;41687;-33.234;-60.334;2023-04-26T12:14:38;23.80;77.40
55771;DHT22;41687;-33.234;-60.334;2023-04-26T12:17:07;23.70;77.80
55771;DHT22;41687;-33.234;-60.334;2023-04-26T12:19:39;23.60;76.70
55771;DHT22;41687;-33.234;-60.334;2023-04-26T12:22:08;23.70;75.40
55771;DHT22;41687;-33.234;-60.334;2023-04-26T12:24:37;23.70;78.50
55771;DHT22;41687;-33.234;-60.334;2023-04-26T12:27:05;23.70;78.30
55771;DHT22;41687;-33.234;-60.334;2023-04-26T12:29:34;23.80;78.60
55771;DHT22;41687;-33.234;-60.334;2023-04-26T12:32:02;23.90;78.60
55771;DHT22;41687;-33.234;-60.334;2023-04-26T12:34:29;23.80;77.90
55771;DHT22;41687;-33.234;-60.334;2023-04-26T12:36:57;23.90;77.80
55771;DHT22;41687;-33.234;-60.334;2023-04-26T12:39:24;24.00;78.60
55771;DHT22;41687;-33.234;-60.334;2023-04-26T12:41:53;24.00;78.40
55771;DHT22;41687;-33.234;-60.334;2023-04-26T12:44:20;24.10;76.90
55771;DHT22;41687;-33.234;-60.334;2023-04-26T12:46:48;24.10;77.50
55771;DHT22;41687;-33.234;-60.334;2023-04-26T12:49:17;24.20;78.10
55771;DHT22;41687;-33.234;-60.334;2023-04-26T12:51:45;24.20;77.90
55771;DHT22;41687;-33.234;-60.334;2023-04-26T12:54:12;24.20;77.90
55771;DHT22;41687;-33.234;-60.334;2023-04-26T12:56:40;24.30;77.40
55771;DHT22;41687;-33.234;-60.334;2023-04-26T12:59:10;24.30;77.70
55771;DHT22;41687;-33.234;-60.334;2023-04-26T13:01:38;24.40;78.00
55771;DHT22;41687;-33.234;-60.334;2023-04-26T13:04:05;24.50;78.10
55771;DHT22;41687;-33.234;-60.334;2023-04-26T13:06:33;24.50;77.80
55771;DHT22;41687;-33.234;-60.334;2023-04-26T13:09:02;24.50;77.50
55771;DHT22;41687;-33.234;-60.334;2023-04-26T13:11:29;24.60;77.30
55771;DHT22;41687;-33.234;-60.334;2023-04-26T13:13:57;24.40;78.00
55771;DHT22;41687;-33.234;-60.334;2023-04-26T13:16:25;24.20;77.90
55771;DHT22;41687;-33.234;-60.334;2023-04-26T13:18:53;24.10;78.50
55771;DHT22;41687;-33.234;-60.334;2023-04-26T13:21:21;23.90;78.60
55771;DHT22;41687;-33.234;-60.334;2023-04-26T13:23:49;23.80;79.20
55771;DHT22;41687;-33.234;-60.334;2023-04-26T13:26:17;23.80;78.70
55771;DHT22;41687;-33.234;-60.334;2023-04-26T13:28:45;23.70;78.80
55771;DHT22;41687;-33.234;-60.334;2023-04-26T13:31:13;23.60;78.00
55771;DHT22;41687;-33.234;-60.334;2023-04-26T13:33:44;23.60;79.00
55771;DHT22;41687;-33.234;-60.334;2023-04-26T13:36:14;23.60;78.80
55771;DHT22;41687;-33.234;-60.334;2023-04-26T13:38:42;23.50;78.90
55771;DHT22;41687;-33.234;-60.334;2023-04-26T13:41:11;23.40;78.20
55771;DHT22;41687;-33.234;-60.334;2023-04-26T13:43:38;23.30;78.70
55771;DHT22;41687;-33.234;-60.334;2023-04-26T13:46:06;23.30;79.60
55771;DHT22;41687;-33.234;-60.334;2023-04-26T13:48:33;23.30;79.10
55771;DHT22;41687;-33.234;-60.334;2023-04-26T13:51:04;23.30;80.20
55771;DHT22;41687;-33.234;-60.334;2023-04-26T13:53:31;23.40;78.90
55771;DHT22;41687;-33.234;-60.334;2023-04-26T13:55:59;23.40;79.30
55771;DHT22;41687;-33.234;-60.334;2023-04-26T13:58:27;23.30;79.10
55771;DHT22;41687;-33.234;-60.334;2023-04-26T14:00:55;23.30;79.80
55771;DHT22;41687;-33.234;-60.334;2023-04-26T14:03:22;23.30;79.30
55771;DHT22;41687;-33.234;-60.334;2023-04-26T14:05:50;23.40;79.50
55771;DHT22;41687;-33.234;-60.334;2023-04-26T14:08:18;23.30;79.70
55771;DHT22;41687;-33.234;-60.334;2023-04-26T14:10:45;23.30;79.90
55771;DHT22;41687;-33.234;-60.334;2023-04-26T14:13:14;23.30;79.70
55771;DHT22;41687;-33.234;-60.334;2023-04-26T14:15:41;23.30;79.80
55771;DHT22;41687;-33.234;-60.334;2023-04-26T14:18:09;23.30;79.50
55771;DHT22;41687;-33.234;-60.334;2023-04-26T14:20:37;23.30;79.70
55771;DHT22;41687;-33.234;-60.334;2023-04-26T14:23:05;23.30;79.20
55771;DHT22;41687;-33.234;-60.334;2023-04-26T14:25:33;23.30;79.70
55771;DHT22;41687;-33.234;-60.334;2023-04-26T14:28:01;23.30;79.50
55771;DHT22;41687;-33.234;-60.334;2023-04-26T14:30:29;23.20;79.10
55771;DHT22;41687;-33.234;-60.334;2023-04-26T14:32:57;23.30;79.50
55771;DHT22;41687;-33.234;-60.334;2023-04-26T14:35:24;23.20;79.50
55771;DHT22;41687;-33.234;-60.334;2023-04-26T14:37:52;23.30;79.90
55771;DHT22;41687;-33.234;-60.334;2023-04-26T14:40:20;23.30;79.70
55771;DHT22;41687;-33.234;-60.334;2023-04-26T14:42:48;23.30;79.80
55771;DHT22;41687;-33.234;-60.334;2023-04-26T14:45:15;23.30;79.70
55771;DHT22;41687;-33.234;-60.334;2023-04-26T14:47:43;23.30;79.80
55771;DHT22;41687;-33.234;-60.334;2023-04-26T14:50:10;23.30;80.30
55771;DHT22;41687;-33.234;-60.334;2023-04-26T14:52:40;23.30;79.60
55771;DHT22;41687;-33.234;-60.334;2023-04-26T14:55:08;23.50;79.70
55771;DHT22;41687;-33.234;-60.334;2023-04-26T14:57:36;23.50;79.00
55771;DHT22;41687;-33.234;-60.334;2023-04-26T15:00:07;23.60;78.40
55771;DHT22;41687;-33.234;-60.334;2023-04-26T15:02:40;23.60;77.70
55771;DHT22;41687;-33.234;-60.334;2023-04-26T15:05:09;23.60;77.60
55771;DHT22;41687;-33.234;-60.334;2023-04-26T15:07:38;23.60;78.20
55771;DHT22;41687;-33.234;-60.334;2023-04-26T15:10:06;23.60;77.70
55771;DHT22;41687;-33.234;-60.334;2023-04-26T15:12:34;23.50;77.50
55771;DHT22;41687;-33.234;-60.334;2023-04-26T15:15:03;23.60;77.30
55771;DHT22;41687;-33.234;-60.334;2023-04-26T15:17:31;23.50;77.70
55771;DHT22;41687;-33.234;-60.334;2023-04-26T15:20:03;23.60;77.60
55771;DHT22;41687;-33.234;-60.334;2023-04-26T15:22:32;23.60;76.80
55771;DHT22;41687;-33.234;-60.334;2023-04-26T15:25:02;23.60;77.30
55771;DHT22;41687;-33.234;-60.334;2023-04-26T15:27:32;23.60;77.00